Time;durP1;ratioP1;P1;durP2;ratioP2;P2;SDS_P1;SDS_P2;PMS_P1;PMS_P2;Temp;Humidity;BMP_temperature;BMP_pressure;BME280_temperature;BME280_humidity;BME280_pressure;Samples;Min_cycle;Max_cycle;Signal;HPM_P1;HPM_P2
2023/12/20 00:00:57;;;;;;;1.45;0.93;;;;;;;5.79;70.59;99849.28;10516514;28;20147;-66
2023/12/20 00:05:59;;;;;;;2.35;1.38;;;;;;;5.84;70.34;99847.31;10531064;28;20036;-66
2023/12/20 00:11:01;;;;;;;1.00;0.90;;;;;;;5.82;70.28;99846.53;10497906;28;20040;-65
2023/12/20 00:16:04;;;;;;;4.38;2.20;;;;;;;5.87;70.04;99833.38;10498358;28;20044;-65
2023/12/20 00:21:06;;;;;;;6.30;2.88;;;;;;;6.01;69.99;99842.28;10498057;28;20052;-64
2023/12/20 00:26:08;;;;;;;4.38;2.00;;;;;;;5.98;69.79;99842.38;10515613;28;20101;-64
2023/12/20 00:31:10;;;;;;;2.92;1.70;;;;;;;6.03;69.78;99837.00;10497787;28;20051;-64
2023/12/20 00:36:12;;;;;;;2.38;1.30;;;;;;;5.99;69.77;99841.50;10515404;28;20048;-64
2023/12/20 00:41:14;;;;;;;3.05;1.73;;;;;;;5.98;69.97;99836.38;10514180;28;20040;-65
2023/12/20 00:46:16;;;;;;;1.88;1.25;;;;;;;6.03;69.82;99824.88;10529016;28;20134;-65
2023/12/20 00:51:18;;;;;;;1.60;1.10;;;;;;;6.02;69.79;99822.34;10510298;28;20403;-64
2023/12/20 00:56:21;;;;;;;3.22;1.05;;;;;;;6.07;69.73;99810.00;10527365;28;20503;-64
2023/12/20 01:01:23;;;;;;;0.95;0.70;;;;;;;6.00;69.74;99809.41;10528742;28;20411;-65
2023/12/20 01:06:25;;;;;;;0.73;0.70;;;;;;;5.91;69.85;99807.25;10528713;28;20047;-64
2023/12/20 01:11:27;;;;;;;0.45;0.45;;;;;;;5.95;69.82;99806.19;10527949;28;20381;-64
2023/12/20 01:16:29;;;;;;;0.57;0.50;;;;;;;5.85;70.19;99815.28;10529026;28;20047;-64
2023/12/20 01:21:31;;;;;;;0.93;0.50;;;;;;;5.88;70.14;99822.94;10528005;28;20047;-65
2023/12/20 01:26:33;;;;;;;0.82;0.60;;;;;;;5.98;69.97;99813.84;10528686;28;20040;-65
2023/12/20 01:31:35;;;;;;;0.52;0.52;;;;;;;6.01;69.81;99815.47;10527282;28;20540;-65
2023/12/20 01:36:37;;;;;;;0.43;0.40;;;;;;;6.04;69.57;99813.56;10528071;28;20059;-64
2023/12/20 01:41:40;;;;;;;1.10;0.90;;;;;;;6.04;69.66;99813.56;10527302;28;20043;-65
2023/12/20 01:46:42;;;;;;;1.05;0.65;;;;;;;5.98;69.69;99795.66;10528099;28;20146;-65
2023/12/20 01:51:44;;;;;;;0.77;0.57;;;;;;;6.03;69.69;99803.25;10527433;28;20042;-65
2023/12/20 01:56:48;;;;;;;0.77;0.77;;;;;;;5.99;69.83;99807.75;10521702;28;20044;-65
2023/12/20 02:01:50;;;;;;;0.50;0.50;;;;;;;5.96;69.88;99814.84;10502761;28;20485;-65
2023/12/20 02:06:53;;;;;;;0.85;0.77;;;;;;;6.01;69.98;99811.13;10519776;28;20135;-65
2023/12/20 02:11:55;;;;;;;0.60;0.60;;;;;;;5.98;69.96;99806.06;10520388;28;20040;-65
2023/12/20 02:16:57;;;;;;;0.38;0.38;;;;;;;5.95;70.24;99813.97;10504062;28;20075;-65
2023/12/20 02:22:10;;;;;;;1.15;0.43;;;;;;;5.98;70.25;99811.25;10520769;28;20127;-65
2023/12/20 02:27:12;;;;;;;0.60;0.60;;;;;;;6.03;69.98;99819.69;10520686;28;20046;-66
2023/12/20 02:32:15;;;;;;;0.40;0.40;;;;;;;6.14;69.95;99817.44;10520072;28;20079;-66
2023/12/20 02:37:17;;;;;;;0.40;0.40;;;;;;;6.20;69.75;99830.19;10519109;28;20504;-66
2023/12/20 02:42:19;;;;;;;0.50;0.50;;;;;;;6.08;70.28;99829.88;10535379;27;20673;-65
2023/12/20 02:47:21;;;;;;;0.30;0.30;;;;;;;6.15;70.09;99832.13;10519182;28;20044;-66
2023/12/20 02:52:24;;;;;;;0.63;0.47;;;;;;;6.13;70.24;99839.16;10519560;28;20052;-65
2023/12/20 02:57:26;;;;;;;0.50;0.50;;;;;;;6.22;70.13;99843.97;10519860;28;20054;-66
2023/12/20 03:02:28;;;;;;;0.40;0.40;;;;;;;6.36;69.79;99835.59;10501033;28;20051;-65
2023/12/20 03:07:30;;;;;;;0.40;0.28;;;;;;;6.22;70.08;99836.16;10517397;28;20055;-66
2023/12/20 03:12:32;;;;;;;0.30;0.30;;;;;;;6.22;70.05;99854.34;10517947;28;20101;-66
2023/12/20 03:17:34;;;;;;;0.45;0.45;;;;;;;6.23;70.11;99844.78;10518288;28;20087;-67
2023/12/20 03:22:36;;;;;;;0.45;0.40;;;;;;;6.24;69.97;99859.47;10501166;28;20040;-66
2023/12/20 03:27:38;;;;;;;0.28;0.28;;;;;;;6.13;70.13;99870.31;10517809;28;20043;-65
2023/12/20 03:32:40;;;;;;;0.47;0.47;;;;;;;6.07;70.03;99870.56;10499064;28;20055;-66
2023/12/20 03:37:43;;;;;;;1.88;0.80;;;;;;;6.07;69.78;99870.56;10517327;28;20079;-65
2023/12/20 03:42:45;;;;;;;1.33;1.02;;;;;;;6.10;69.54;99878.22;10499935;28;20103;-65
2023/12/20 03:47:48;;;;;;;7.75;1.45;;;;;;;6.10;69.17;99880.00;10533033;27;20059;-64
2023/12/20 03:52:51;;;;;;;2.17;1.30;;;;;;;6.01;68.72;99895.94;10517195;28;20055;-64
2023/12/20 03:57:53;;;;;;;2.58;1.48;;;;;;;5.74;68.42;99903.09;10499123;28;20048;-64
2023/12/20 04:02:55;;;;;;;2.47;0.90;;;;;;;5.66;68.61;99917.28;10515682;28;20147;-65
2023/12/20 04:07:59;;;;;;;1.90;1.17;;;;;;;5.64;68.21;99924.28;10516334;28;20133;-65
2023/12/20 04:13:01;;;;;;;4.40;1.67;;;;;;;5.46;67.36;99925.88;10516309;28;20101;-64
2023/12/20 04:18:04;;;;;;;2.03;1.20;;;;;;;5.31;67.05;99926.47;10498013;28;20044;-66
2023/12/20 04:23:06;;;;;;;3.90;2.08;;;;;;;5.23;67.47;99928.47;10515589;28;20136;-64
2023/12/20 04:28:08;;;;;;;1.13;0.98;;;;;;;5.20;67.28;99923.44;10516288;28;20054;-65
2023/12/20 04:33:10;;;;;;;4.93;0.90;;;;;;;5.14;67.30;99927.09;10516147;28;20052;-66
2023/12/20 04:38:12;;;;;;;3.53;1.25;;;;;;;5.24;66.98;99941.41;10515511;28;20044;-65
2023/12/20 04:43:14;;;;;;;1.38;0.95;;;;;;;5.46;66.90;99939.69;10498692;28;20119;-64
2023/12/20 04:48:16;;;;;;;1.08;0.90;;;;;;;5.50;66.63;99938.66;10515801;28;20040;-64
2023/12/20 04:53:18;;;;;;;3.30;0.90;;;;;;;5.52;66.50;99936.00;10515769;28;20535;-65
2023/12/20 04:58:20;;;;;;;2.78;1.38;;;;;;;5.41;66.59;99933.81;10515679;28;20079;-64
2023/12/20 05:03:22;;;;;;;5.40;1.20;;;;;;;5.41;66.56;99933.81;10513604;28;20074;-64
2023/12/20 05:08:25;;;;;;;4.57;1.70;;;;;;;5.32;66.75;99948.88;10515329;28;20484;-64
2023/12/20 05:13:27;;;;;;;2.55;1.15;;;;;;;5.32;66.54;99946.31;10493704;28;20407;-64
2023/12/20 05:18:43;;;;;;;4.95;1.02;;;;;;;5.18;66.70;99951.16;10514898;28;20460;-65
2023/12/20 05:23:45;;;;;;;1.65;0.95;;;;;;;5.08;66.64;99960.19;10514360;28;20117;-66
2023/12/20 05:28:47;;;;;;;3.38;1.38;;;;;;;4.87;66.28;99937.63;10514954;28;20039;-64
2023/12/20 05:33:49;;;;;;;3.38;1.13;;;;;;;5.05;65.82;99957.69;10521756;28;20059;-64
2023/12/20 05:38:52;;;;;;;7.50;1.58;;;;;;;5.15;65.44;99951.25;10522136;28;20048;-64
2023/12/20 05:43:54;;;;;;;1.52;1.00;;;;;;;5.05;65.89;99948.19;10522313;28;20125;-66
2023/12/20 05:48:58;;;;;;;2.95;1.00;;;;;;;5.06;66.14;99928.28;10538206;28;20040;-65
2023/12/20 05:54:01;;;;;;;5.00;1.15;;;;;;;4.94;65.59;99934.78;10504694;28;20307;-64
2023/12/20 05:59:03;;;;;;;3.65;0.70;;;;;;;5.00;66.20;99931.13;10521559;28;20599;-64
2023/12/20 06:04:05;;;;;;;1.25;1.00;;;;;;;4.90;66.32;99935.81;10522025;28;20093;-64
2023/12/20 06:09:07;;;;;;;4.68;1.65;;;;;;;4.87;66.30;99937.63;10521239;28;20088;-64
2023/12/20 06:14:09;;;;;;;1.15;0.90;;;;;;;4.97;66.31;99949.34;10521094;28;20211;-63
2023/12/20 06:19:11;;;;;;;2.53;0.98;;;;;;;4.99;66.28;99950.13;10519311;28;20109;-64
2023/12/20 06:24:13;;;;;;;1.50;0.82;;;;;;;5.05;66.23;99966.31;10521058;28;20047;-64
2023/12/20 06:29:15;;;;;;;1.73;1.30;;;;;;;5.08;66.25;99973.16;10520718;28;20048;-65
2023/12/20 06:34:17;;;;;;;4.82;1.25;;;;;;;4.92;66.61;99977.19;10519351;28;20069;-65
2023/12/20 06:39:20;;;;;;;12.13;1.98;;;;;;;4.89;66.80;99977.28;10519695;28;20647;-64
2023/12/20 06:44:21;;;;;;;2.80;1.00;;;;;;;4.96;66.81;99964.09;10519337;28;20042;-65
2023/12/20 06:49:23;;;;;;;2.08;1.15;;;;;;;5.03;66.82;99965.53;10519731;28;20036;-64
2023/12/20 06:54:26;;;;;;;5.38;1.20;;;;;;;5.17;66.67;99967.59;10518499;28;20042;-65
2023/12/20 06:59:28;;;;;;;1.08;0.90;;;;;;;5.30;66.44;99961.06;10518470;28;20044;-64
2023/12/20 07:04:30;;;;;;;1.88;0.90;;;;;;;5.33;66.47;99963.56;10509320;28;20056;-65
2023/12/20 07:09:32;;;;;;;3.75;1.65;;;;;;;5.31;66.32;99967.97;10514425;28;20080;-65
2023/12/20 07:14:34;;;;;;;2.95;1.05;;;;;;;5.32;66.29;99967.03;10514689;28;20067;-65
2023/12/20 07:19:38;;;;;;;2.42;1.25;;;;;;;5.23;66.41;99963.03;10513526;28;20044;-65
2023/12/20 07:24:40;;;;;;;1.25;1.08;;;;;;;5.29;66.37;99967.13;10513911;28;20155;-66
2023/12/20 07:29:42;;;;;;;3.08;1.00;;;;;;;5.31;66.18;99981.75;10513647;28;20128;-66
2023/12/20 07:34:44;;;;;;;3.38;1.13;;;;;;;5.36;65.92;99979.84;10512109;28;20063;-66
2023/12/20 07:39:47;;;;;;;2.58;1.00;;;;;;;5.28;66.02;99988.81;10494702;28;20519;-65
2023/12/20 07:44:49;;;;;;;2.35;1.00;;;;;;;5.18;65.99;99988.31;10512314;28;20051;-65
2023/12/20 07:49:52;;;;;;;4.03;0.98;;;;;;;5.24;65.86;99984.63;10510483;28;20526;-65
2023/12/20 07:54:54;;;;;;;1.15;0.98;;;;;;;5.31;65.49;100001.66;10512580;28;20059;-64
2023/12/20 07:59:56;;;;;;;1.40;1.20;;;;;;;5.37;65.68;99991.88;10511668;28;20813;-66
2023/12/20 08:04:58;;;;;;;2.05;1.02;;;;;;;5.19;65.87;99981.34;10508941;28;20044;-66
2023/12/20 08:10:00;;;;;;;1.48;0.75;;;;;;;5.30;65.91;100002.56;10511790;28;20059;-65
2023/12/20 08:15:04;;;;;;;5.55;1.60;;;;;;;5.42;65.68;99994.31;10493194;28;20050;-65
2023/12/20 08:20:06;;;;;;;5.30;1.88;;;;;;;5.48;65.48;100012.25;10507780;28;20048;-66
2023/12/20 08:25:09;;;;;;;3.03;1.30;;;;;;;5.53;65.14;100018.13;10511294;28;20040;-65
2023/12/20 08:30:12;;;;;;;2.03;1.42;;;;;;;5.46;65.49;100021.81;10507988;28;20036;-66
2023/12/20 08:35:14;;;;;;;3.10;1.25;;;;;;;5.42;65.00;100010.72;10475017;28;20051;-66
2023/12/20 08:40:16;;;;;;;3.53;1.67;;;;;;;5.53;65.28;100013.75;10508748;28;20083;-66
2023/12/20 08:45:18;;;;;;;2.58;1.17;;;;;;;5.57;64.98;100015.31;10472792;28;20139;-66
2023/12/20 08:50:20;;;;;;;2.30;0.88;;;;;;;5.56;65.06;100015.38;10490223;28;20040;-65
2023/12/20 08:55:23;;;;;;;1.65;1.08;;;;;;;5.68;65.06;100017.50;10502263;28;20028;-69
2023/12/20 09:00:27;;;;;;;3.58;1.35;;;;;;;5.67;65.29;100012.38;10507313;28;20408;-69
2023/12/20 09:05:30;;;;;;;3.67;1.52;;;;;;;5.88;64.64;100009.78;10492386;28;20032;-69
2023/12/20 09:10:32;;;;;;;4.07;1.10;;;;;;;5.98;64.50;100012.88;10515733;28;20119;-70
2023/12/20 09:15:34;;;;;;;5.78;1.90;;;;;;;5.91;64.12;100014.88;10514955;28;20047;-69
2023/12/20 09:20:38;;;;;;;4.80;1.90;;;;;;;6.05;64.38;100009.97;10532711;28;20032;-69
2023/12/20 09:25:44;;;;;;;4.68;1.90;;;;;;;6.11;64.12;100012.34;10499092;28;20043;-69
2023/12/20 09:30:47;;;;;;;4.97;1.70;;;;;;;6.21;64.01;100011.06;10513231;28;20048;-69
2023/12/20 09:35:50;;;;;;;3.80;1.40;;;;;;;6.42;63.33;100013.69;10513798;28;20044;-70
2023/12/20 09:40:54;;;;;;;1.60;1.10;;;;;;;6.33;63.60;100017.53;10497733;28;20613;-69
2023/12/20 09:46:00;;;;;;;3.47;1.88;;;;;;;6.23;63.95;100019.63;10514724;28;20592;-69
2023/12/20 09:51:05;;;;;;;4.40;1.90;;;;;;;6.29;63.38;100013.34;10514909;28;20052;-70
2023/12/20 09:56:10;;;;;;;3.05;1.50;;;;;;;6.49;62.96;100008.19;10512868;28;20048;-70
2023/12/20 10:01:16;;;;;;;4.40;1.52;;;;;;;6.50;62.90;99998.63;10526037;28;20079;-69
2023/12/20 10:06:19;;;;;;;2.50;1.30;;;;;;;6.65;62.80;100001.47;10512917;28;20131;-68
2023/12/20 10:11:21;;;;;;;3.38;1.35;;;;;;;6.91;62.66;99990.78;10515741;28;20036;-68
2023/12/20 10:16:28;;;;;;;4.03;2.10;;;;;;;7.00;62.12;99974.75;10513855;28;20044;-68
2023/12/20 10:21:30;;;;;;;6.70;1.40;;;;;;;7.15;61.47;99971.47;10513134;28;20044;-67
2023/12/20 10:26:33;;;;;;;1.55;1.02;;;;;;;7.00;61.72;99973.91;10513412;28;20057;-68
2023/12/20 10:31:38;;;;;;;3.17;1.30;;;;;;;7.08;61.52;99964.84;10513651;28;20173;-68
2023/12/20 10:36:41;;;;;;;6.25;2.03;;;;;;;6.92;60.59;99968.19;10511985;28;20052;-68
2023/12/20 10:41:46;;;;;;;4.53;2.25;;;;;;;7.10;60.63;99962.19;10495796;28;20082;-68
2023/12/20 10:46:51;;;;;;;3.22;1.23;;;;;;;7.12;60.65;99968.19;10512725;28;20496;-68
2023/12/20 10:51:57;;;;;;;6.13;1.10;;;;;;;7.15;60.37;99953.28;10512560;28;20048;-68
2023/12/20 10:57:00;;;;;;;2.83;1.73;;;;;;;7.10;60.04;99959.59;10512582;28;20093;-68
2023/12/20 11:02:06;;;;;;;3.33;1.50;;;;;;;7.03;60.98;99960.78;10512104;28;20189;-68
2023/12/20 11:07:19;;;;;;;3.28;1.15;;;;;;;6.98;60.23;99957.53;10524999;28;20127;-67
2023/12/20 11:12:36;;;;;;;2.10;1.15;;;;;;;6.87;60.07;99957.16;10513106;28;20040;-67
2023/12/20 11:17:40;;;;;;;1.70;1.10;;;;;;;6.80;60.19;99950.53;10505755;28;20048;-68
2023/12/20 11:22:53;;;;;;;3.15;1.40;;;;;;;6.78;60.21;99957.56;10511399;28;20048;-67
2023/12/20 11:28:10;;;;;;;7.18;2.40;;;;;;;6.74;59.81;99948.22;10507494;28;20492;-68
2023/12/20 11:33:21;;;;;;;2.20;1.30;;;;;;;6.79;59.92;99948.88;10510719;28;20047;-68
2023/12/20 11:38:24;;;;;;;4.60;1.65;;;;;;;6.85;60.40;99931.25;10474295;28;20059;-68
2023/12/20 11:43:36;;;;;;;1.88;1.23;;;;;;;6.80;59.76;99917.59;10519435;27;20129;-68
2023/12/20 11:48:44;;;;;;;7.22;1.50;;;;;;;6.75;59.80;99922.19;10510341;28;20117;-67
2023/12/20 11:53:57;;;;;;;2.08;1.30;;;;;;;6.79;60.67;99923.72;10490831;28;20048;-67
2023/12/20 11:58:59;;;;;;;3.58;1.23;;;;;;;6.74;61.04;99917.03;10492162;28;20533;-67
2023/12/20 12:04:23;;;;;;;4.03;1.75;;;;;;;6.68;61.28;99922.50;10507413;28;20475;-67
2023/12/20 12:09:25;;;;;;;4.45;1.40;;;;;;;6.68;61.59;99931.13;10501054;28;20052;-66
2023/12/20 12:14:27;;;;;;;2.15;1.10;;;;;;;6.59;61.79;99931.56;10505401;28;20039;-68
2023/12/20 12:19:34;;;;;;;3.17;1.40;;;;;;;6.53;62.30;99933.56;10485335;28;20549;-66
2023/12/20 12:24:37;;;;;;;4.75;1.95;;;;;;;6.51;62.57;99925.00;10508890;28;20043;-66
2023/12/20 12:29:40;;;;;;;2.17;1.42;;;;;;;6.45;62.96;99914.88;10485141;28;20538;-66
2023/12/20 12:34:42;;;;;;;4.28;1.90;;;;;;;6.63;62.48;99903.69;10506905;28;20359;-67
2023/12/20 12:39:46;;;;;;;6.78;1.70;;;;;;;6.81;62.35;99905.47;10507498;28;20439;-67
2023/12/20 12:44:48;;;;;;;4.15;1.65;;;;;;;6.83;62.31;99901.88;10505703;28;20036;-66
2023/12/20 12:49:53;;;;;;;7.47;1.63;;;;;;;6.68;62.37;99886.13;10489742;28;20044;-67
2023/12/20 12:54:55;;;;;;;3.13;1.38;;;;;;;6.82;62.29;99878.53;10506403;28;20036;-66
2023/12/20 12:59:58;;;;;;;7.32;1.77;;;;;;;6.77;62.37;99876.16;10488244;28;20075;-67
2023/12/20 13:05:02;;;;;;;4.18;1.20;;;;;;;6.80;62.53;99877.75;10507489;28;20047;-67
2023/12/20 13:10:05;;;;;;;3.92;1.98;;;;;;;6.99;62.39;99860.41;10504345;28;20028;-66
2023/12/20 13:15:09;;;;;;;4.40;1.50;;;;;;;6.97;62.73;99849.25;10506424;28;20276;-65
2023/12/20 13:20:12;;;;;;;5.10;1.73;;;;;;;7.12;62.46;99853.75;10506453;28;20139;-64
2023/12/20 13:25:15;;;;;;;6.07;1.52;;;;;;;6.86;62.81;99835.88;10487362;28;20381;-65
2023/12/20 13:30:18;;;;;;;2.05;1.30;;;;;;;6.91;62.44;99833.94;10505827;28;20036;-65
2023/12/20 13:35:24;;;;;;;4.60;1.60;;;;;;;7.07;62.34;99834.91;10503710;28;20036;-68
2023/12/20 13:40:28;;;;;;;5.50;1.83;;;;;;;7.13;62.47;99832.88;10503979;28;20046;-67
2023/12/20 13:45:32;;;;;;;4.50;1.92;;;;;;;7.23;62.33;99819.41;10505695;28;20127;-67
2023/12/20 13:50:35;;;;;;;4.10;1.80;;;;;;;6.99;62.31;99821.44;10489180;28;20450;-67
2023/12/20 13:55:38;;;;;;;2.58;1.63;;;;;;;6.94;62.37;99795.63;10509347;28;20039;-68
2023/12/20 14:00:41;;;;;;;5.20;1.40;;;;;;;6.83;62.17;99799.66;10492692;28;20054;-67
2023/12/20 14:05:44;;;;;;;2.33;1.15;;;;;;;6.77;62.60;99797.34;10524735;27;20042;-67
2023/12/20 14:10:50;;;;;;;6.43;1.70;;;;;;;6.89;62.13;99786.38;10503974;28;20047;-67
2023/12/20 14:15:55;;;;;;;4.97;1.58;;;;;;;6.97;62.08;99789.47;10529966;27;20048;-67
2023/12/20 14:21:00;;;;;;;1.95;1.05;;;;;;;6.91;61.48;99797.53;10494996;28;20119;-69
2023/12/20 14:26:04;;;;;;;3.03;1.55;;;;;;;6.92;61.57;99787.06;10511263;28;20058;-68
2023/12/20 14:31:06;;;;;;;4.18;1.42;;;;;;;6.94;61.47;99782.63;10517331;28;20307;-68
2023/12/20 14:36:09;;;;;;;3.00;1.00;;;;;;;6.95;61.37;99775.69;10518727;28;20055;-68
2023/12/20 14:41:11;;;;;;;2.20;1.20;;;;;;;6.80;61.64;99777.25;10500092;28;20499;-68
2023/12/20 14:46:13;;;;;;;1.80;1.00;;;;;;;6.84;61.70;99772.75;10495777;28;20040;-68
2023/12/20 14:51:15;;;;;;;3.00;1.23;;;;;;;6.81;61.69;99765.94;10517968;28;20507;-68
2023/12/20 14:56:17;;;;;;;1.10;1.00;;;;;;;6.80;61.82;99761.66;10483076;28;20040;-69
2023/12/20 15:01:23;;;;;;;5.68;1.40;;;;;;;6.77;61.67;99759.22;10499573;28;20048;-69
2023/12/20 15:06:25;;;;;;;6.93;1.75;;;;;;;6.77;61.73;99774.81;10518280;28;20051;-68
2023/12/20 15:11:28;;;;;;;0.95;0.75;;;;;;;6.71;62.08;99776.84;10518756;28;20130;-68
2023/12/20 15:16:30;;;;;;;1.38;0.88;;;;;;;6.84;61.76;99783.13;10500503;28;20397;-68
2023/12/20 15:21:39;;;;;;;8.15;1.10;;;;;;;6.77;61.93;99779.16;10499078;28;20054;-68
2023/12/20 15:26:46;;;;;;;4.88;1.65;;;;;;;6.84;61.99;99781.38;10500124;28;20040;-68
2023/12/20 15:31:48;;;;;;;1.33;0.98;;;;;;;6.82;61.99;99784.97;10515699;28;20040;-68
2023/12/20 15:36:50;;;;;;;2.33;1.08;;;;;;;6.77;62.04;99785.19;10517616;28;20055;-68
2023/12/20 15:41:53;;;;;;;2.95;0.80;;;;;;;6.60;63.09;99779.06;10517183;28;20496;-68
2023/12/20 15:46:55;;;;;;;5.05;1.27;;;;;;;6.58;63.52;99783.50;10517579;28;20436;-69
2023/12/20 15:51:57;;;;;;;1.33;1.00;;;;;;;6.56;63.59;99774.94;10507512;28;20393;-68
2023/12/20 15:56:59;;;;;;;4.22;1.30;;;;;;;6.41;64.16;99770.44;10511094;28;20537;-68
2023/12/20 16:02:02;;;;;;;3.25;1.23;;;;;;;6.46;64.05;99763.28;10493770;28;20130;-68
2023/12/20 16:07:04;;;;;;;2.40;0.88;;;;;;;6.40;64.01;99766.16;10506717;28;20082;-68
2023/12/20 16:12:07;;;;;;;2.25;1.13;;;;;;;6.37;64.00;99759.34;10506187;28;20491;-67
2023/12/20 16:17:09;;;;;;;2.38;0.82;;;;;;;6.35;64.13;99753.38;10490464;28;20098;-68
2023/12/20 16:22:11;;;;;;;5.97;1.02;;;;;;;6.34;64.17;99759.50;10510842;28;20540;-67
2023/12/20 16:27:13;;;;;;;3.17;1.20;;;;;;;6.27;64.00;99771.91;10510912;28;20104;-68
2023/12/20 16:32:15;;;;;;;3.72;1.25;;;;;;;6.47;63.97;99764.97;10492654;28;20048;-67
2023/12/20 16:37:18;;;;;;;2.00;1.00;;;;;;;6.48;63.73;99766.66;10509625;28;20055;-68
2023/12/20 16:42:20;;;;;;;3.97;1.15;;;;;;;6.48;63.90;99759.72;10510192;28;20044;-66
2023/12/20 16:47:22;;;;;;;2.05;0.82;;;;;;;6.57;63.76;99745.47;10510326;28;20130;-68
2023/12/20 16:52:24;;;;;;;1.55;0.88;;;;;;;6.37;64.05;99745.53;10506395;28;20127;-68
2023/12/20 16:57:26;;;;;;;1.98;1.13;;;;;;;6.49;63.91;99756.19;10487774;28;20139;-67
2023/12/20 17:02:28;;;;;;;2.63;1.13;;;;;;;6.33;64.44;99734.41;10508048;28;20043;-67
2023/12/20 17:07:30;;;;;;;2.85;1.30;;;;;;;6.43;64.41;99727.88;10501986;28;20127;-68
2023/12/20 17:12:33;;;;;;;4.60;1.42;;;;;;;6.55;64.25;99739.50;10504677;28;20040;-68
2023/12/20 17:17:35;;;;;;;1.75;1.15;;;;;;;6.43;64.44;99740.88;10502519;28;20606;-68
2023/12/20 17:22:41;;;;;;;3.58;1.35;;;;;;;6.52;64.47;99742.22;10491467;28;20113;-68
2023/12/20 17:27:45;;;;;;;3.20;1.23;;;;;;;6.58;64.25;99749.72;10482129;28;20040;-68
2023/12/20 17:32:49;;;;;;;3.60;1.17;;;;;;;6.47;64.71;99741.59;10496778;28;20036;-68
2023/12/20 17:37:52;;;;;;;1.27;0.65;;;;;;;6.15;65.93;99743.00;10517188;28;20044;-68
2023/12/20 17:42:55;;;;;;;1.88;1.15;;;;;;;6.10;66.33;99745.81;10517843;28;20052;-66
2023/12/20 17:47:57;;;;;;;3.22;1.17;;;;;;;6.13;66.57;99737.03;10498614;28;20119;-68
2023/12/20 17:53:00;;;;;;;2.10;1.20;;;;;;;6.01;67.63;99750.56;10513872;28;20455;-68
2023/12/20 17:58:02;;;;;;;2.20;1.33;;;;;;;6.16;66.86;99734.31;10516430;28;20844;-68
2023/12/20 18:03:04;;;;;;;3.08;1.10;;;;;;;6.08;67.18;99742.44;10516402;28;20044;-68
2023/12/20 18:08:06;;;;;;;3.28;1.38;;;;;;;6.15;67.03;99728.28;10516208;28;20071;-68
2023/12/20 18:13:09;;;;;;;2.15;1.35;;;;;;;6.06;67.36;99713.09;10516700;28;20377;-67
2023/12/20 18:18:11;;;;;;;0.93;0.80;;;;;;;6.09;67.54;99719.91;10515883;28;20136;-66
2023/12/20 18:23:14;;;;;;;0.90;0.70;;;;;;;6.27;66.82;99717.38;10516485;28;20047;-67
2023/12/20 18:28:16;;;;;;;0.77;0.70;;;;;;;6.25;66.82;99719.19;10510156;28;20059;-69
2023/12/20 18:33:21;;;;;;;4.10;1.45;;;;;;;6.32;66.61;99702.44;10515855;28;20044;-68
2023/12/20 18:38:28;;;;;;;1.20;0.93;;;;;;;6.42;66.22;99694.19;10510518;28;20102;-67
2023/12/20 18:43:30;;;;;;;2.08;1.30;;;;;;;6.37;66.29;99685.78;10515348;28;20052;-68
2023/12/20 18:48:33;;;;;;;2.65;1.55;;;;;;;6.45;66.09;99689.69;10507364;28;20186;-68
2023/12/20 18:53:36;;;;;;;2.15;1.00;;;;;;;6.49;65.87;99685.22;10518316;27;20131;-66
2023/12/20 18:58:39;;;;;;;1.20;0.88;;;;;;;6.60;65.73;99681.19;10513997;28;20043;-68
2023/12/20 19:03:42;;;;;;;1.13;0.95;;;;;;;6.55;65.69;99671.94;10494499;28;20561;-68
2023/12/20 19:08:49;;;;;;;1.38;1.20;;;;;;;6.60;65.65;99667.34;10494229;28;20135;-68
2023/12/20 19:13:52;;;;;;;1.48;0.90;;;;;;;6.59;65.48;99668.28;10512438;28;20109;-67
2023/12/20 19:18:54;;;;;;;2.15;1.20;;;;;;;6.66;65.56;99656.66;10511460;28;20127;-68
2023/12/20 19:23:56;;;;;;;1.83;1.20;;;;;;;6.70;65.39;99655.59;10504391;28;20055;-68
2023/12/20 19:28:59;;;;;;;1.90;0.90;;;;;;;6.65;65.36;99636.81;10474617;28;20074;-68
2023/12/20 19:34:02;;;;;;;1.80;0.95;;;;;;;6.80;65.15;99646.44;10510262;28;20476;-68
2023/12/20 19:39:07;;;;;;;1.27;0.98;;;;;;;6.75;65.16;99653.63;10508733;28;20060;-69
2023/12/20 19:44:10;;;;;;;1.85;1.10;;;;;;;6.87;65.26;99632.25;10509342;28;20075;-67
2023/12/20 19:49:12;;;;;;;0.70;0.70;;;;;;;6.84;65.13;99619.38;10507012;28;20075;-67
2023/12/20 19:54:14;;;;;;;1.40;0.82;;;;;;;6.85;64.91;99616.72;10504459;28;20508;-68
2023/12/20 19:59:18;;;;;;;1.42;1.02;;;;;;;6.91;65.02;99610.38;10514369;27;20051;-68
2023/12/20 20:04:20;;;;;;;1.25;0.70;;;;;;;6.97;64.91;99602.25;10502561;28;20419;-68
2023/12/20 20:09:22;;;;;;;1.00;0.82;;;;;;;6.95;64.93;99591.09;10498931;28;20486;-68
2023/12/20 20:14:27;;;;;;;1.50;1.05;;;;;;;7.02;64.83;99576.91;10508301;28;20063;-68
2023/12/20 20:19:29;;;;;;;2.67;1.02;;;;;;;6.99;64.92;99572.69;10510826;28;20047;-68
2023/12/20 20:24:32;;;;;;;3.38;0.98;;;;;;;7.06;64.85;99568.84;10511448;28;20044;-68
2023/12/20 20:29:34;;;;;;;1.45;0.93;;;;;;;7.08;64.64;99545.38;10510484;28;20040;-68
2023/12/20 20:34:36;;;;;;;2.15;1.10;;;;;;;6.95;65.01;99539.97;10511667;28;20051;-69
2023/12/20 20:39:38;;;;;;;3.13;1.50;;;;;;;7.15;64.70;99547.56;10513713;28;20125;-68
2023/12/20 20:44:44;;;;;;;5.07;1.52;;;;;;;7.26;64.39;99523.59;10506594;28;20063;-68
2023/12/20 20:49:46;;;;;;;2.03;0.95;;;;;;;7.10;64.56;99520.13;10523609;28;20588;-68
2023/12/20 20:54:48;;;;;;;2.17;1.00;;;;;;;6.98;64.84;99507.75;10496424;28;20136;-69
2023/12/20 20:59:50;;;;;;;2.95;1.23;;;;;;;6.99;64.62;99491.25;10511923;28;20040;-68
2023/12/20 21:04:52;;;;;;;1.95;1.20;;;;;;;7.07;64.71;99495.13;10518312;28;20059;-68
2023/12/20 21:09:55;;;;;;;2.03;1.00;;;;;;;7.08;64.58;99490.78;10510123;28;20051;-68
2023/12/20 21:14:57;;;;;;;3.78;1.08;;;;;;;7.17;64.55;99490.28;10479557;28;20040;-69
2023/12/20 21:19:59;;;;;;;2.17;0.63;;;;;;;7.23;64.42;99469.13;10519167;28;20500;-69
2023/12/20 21:25:01;;;;;;;3.03;1.05;;;;;;;7.26;64.25;99470.75;10519717;28;20040;-69
2023/12/20 21:30:07;;;;;;;3.42;1.05;;;;;;;7.15;64.37;99471.31;10518105;28;20403;-69
2023/12/20 21:35:09;;;;;;;1.23;0.88;;;;;;;7.17;64.37;99472.06;10534239;27;20044;-69
2023/12/20 21:40:11;;;;;;;0.85;0.57;;;;;;;7.19;64.60;99459.81;10503328;28;20059;-68
2023/12/20 21:45:13;;;;;;;2.38;1.00;;;;;;;7.03;65.59;99440.75;10520021;28;20051;-69
2023/12/20 21:50:15;;;;;;;3.22;1.05;;;;;;;7.06;65.69;99427.63;10502736;28;20063;-68
2023/12/20 21:55:18;;;;;;;2.13;0.90;;;;;;;7.00;65.61;99430.50;10520396;28;20036;-68
2023/12/20 22:00:20;;;;;;;1.48;1.20;;;;;;;7.10;65.68;99440.34;10519336;28;20194;-69
2023/12/20 22:05:22;;;;;;;2.67;1.00;;;;;;;7.06;66.00;99417.22;10519535;28;20383;-68
2023/12/20 22:10:24;;;;;;;4.05;1.17;;;;;;;7.11;65.77;99426.44;10518526;28;20052;-68
2023/12/20 22:15:26;;;;;;;1.75;0.90;;;;;;;7.09;65.80;99432.63;10519025;28;20451;-68
2023/12/20 22:20:30;;;;;;;1.67;1.00;;;;;;;7.27;65.49;99421.25;10519365;28;20127;-68
2023/12/20 22:25:33;;;;;;;2.22;0.95;;;;;;;7.29;65.08;99413.34;10515969;28;20044;-67
2023/12/20 22:30:35;;;;;;;1.75;0.77;;;;;;;7.18;65.07;99406.16;10515264;28;20040;-68
2023/12/20 22:35:37;;;;;;;1.45;0.68;;;;;;;7.26;64.75;99406.56;10511397;28;20047;-67
2023/12/20 22:40:39;;;;;;;1.92;1.13;;;;;;;7.33;64.85;99418.31;10515623;28;20397;-68
2023/12/20 22:45:43;;;;;;;2.30;0.95;;;;;;;7.49;64.54;99394.91;10515418;28;20040;-68
2023/12/20 22:50:45;;;;;;;3.33;1.58;;;;;;;7.53;64.40;99373.81;10493236;28;20047;-68
2023/12/20 22:55:46;;;;;;;2.00;1.10;;;;;;;7.48;64.49;99370.63;10515419;28;20036;-67
2023/12/20 23:00:49;;;;;;;1.13;0.60;;;;;;;7.50;64.56;99349.72;10497260;28;20116;-68
2023/12/20 23:05:52;;;;;;;0.60;0.60;;;;;;;7.44;64.65;99355.28;10495535;28;20048;-68
2023/12/20 23:10:54;;;;;;;1.30;0.90;;;;;;;7.39;65.20;99346.88;10516022;28;20089;-67
2023/12/20 23:15:57;;;;;;;1.05;0.70;;;;;;;7.35;65.42;99348.81;10514341;28;20404;-68
2023/12/20 23:20:59;;;;;;;0.73;0.50;;;;;;;7.42;65.31;99367.53;10498274;28;20557;-67
2023/12/20 23:26:01;;;;;;;0.60;0.60;;;;;;;7.48;65.13;99373.25;10513484;28;20043;-67
2023/12/20 23:31:03;;;;;;;0.88;0.45;;;;;;;7.41;65.75;99345.03;10511945;28;20130;-67
2023/12/20 23:36:06;;;;;;;0.90;0.80;;;;;;;7.22;66.71;99347.84;10488385;28;20496;-67
2023/12/20 23:41:08;;;;;;;1.60;0.38;;;;;;;7.25;67.02;99334.66;10510840;28;20811;-68